sensor_id;sensor_type;location;lat;lon;timestamp;P1;durP1;ratioP1;P2;durP2;ratioP2
3465;SDS011;1747;48.884;9.160;2022-09-09T00:01:37;3.88;;;1.70;;
3465;SDS011;1747;48.884;9.160;2022-09-09T00:04:14;3.80;;;1.83;;
3465;SDS011;1747;48.884;9.160;2022-09-09T00:06:48;6.78;;;2.30;;
3465;SDS011;1747;48.884;9.160;2022-09-09T00:09:23;3.83;;;1.65;;
3465;SDS011;1747;48.884;9.160;2022-09-09T00:11:54;4.07;;;1.67;;
3465;SDS011;1747;48.884;9.160;2022-09-09T00:14:32;5.22;;;2.05;;
3465;SDS011;1747;48.884;9.160;2022-09-09T00:17:08;5.53;;;1.77;;
3465;SDS011;1747;48.884;9.160;2022-09-09T00:19:39;3.88;;;1.88;;
3465;SDS011;1747;48.884;9.160;2022-09-09T00:22:14;7.57;;;2.13;;
3465;SDS011;1747;48.884;9.160;2022-09-09T00:24:44;7.72;;;1.83;;
3465;SDS011;1747;48.884;9.160;2022-09-09T00:27:16;10.60;;;1.88;;
3465;SDS011;1747;48.884;9.160;2022-09-09T00:29:51;10.52;;;2.28;;
3465;SDS011;1747;48.884;9.160;2022-09-09T00:32:21;2.97;;;1.50;;
3465;SDS011;1747;48.884;9.160;2022-09-09T00:34:51;5.97;;;1.48;;
3465;SDS011;1747;48.884;9.160;2022-09-09T00:37:21;5.38;;;1.80;;
3465;SDS011;1747;48.884;9.160;2022-09-09T00:39:52;3.05;;;1.42;;
3465;SDS011;1747;48.884;9.160;2022-09-09T00:42:23;4.35;;;1.58;;
3465;SDS011;1747;48.884;9.160;2022-09-09T00:44:53;6.25;;;1.85;;
3465;SDS011;1747;48.884;9.160;2022-09-09T00:47:32;2.05;;;1.20;;
3465;SDS011;1747;48.884;9.160;2022-09-09T00:50:13;3.35;;;1.52;;
3465;SDS011;1747;48.884;9.160;2022-09-09T00:53:05;4.30;;;1.40;;
3465;SDS011;1747;48.884;9.160;2022-09-09T00:55:41;4.80;;;1.63;;
3465;SDS011;1747;48.884;9.160;2022-09-09T00:58:14;2.55;;;1.02;;
3465;SDS011;1747;48.884;9.160;2022-09-09T01:00:42;3.90;;;1.50;;
3465;SDS011;1747;48.884;9.160;2022-09-09T01:03:18;3.55;;;1.30;;
3465;SDS011;1747;48.884;9.160;2022-09-09T01:05:49;4.05;;;1.30;;
3465;SDS011;1747;48.884;9.160;2022-09-09T01:08:31;2.60;;;1.00;;
3465;SDS011;1747;48.884;9.160;2022-09-09T01:11:09;3.70;;;1.25;;
3465;SDS011;1747;48.884;9.160;2022-09-09T01:13:41;4.40;;;1.30;;
3465;SDS011;1747;48.884;9.160;2022-09-09T01:16:11;2.55;;;1.20;;
3465;SDS011;1747;48.884;9.160;2022-09-09T01:18:40;2.20;;;0.98;;
3465;SDS011;1747;48.884;9.160;2022-09-09T01:21:14;2.05;;;0.98;;
3465;SDS011;1747;48.884;9.160;2022-09-09T01:24:01;2.90;;;1.00;;
3465;SDS011;1747;48.884;9.160;2022-09-09T01:26:40;2.30;;;1.02;;
3465;SDS011;1747;48.884;9.160;2022-09-09T01:29:09;2.08;;;1.00;;
3465;SDS011;1747;48.884;9.160;2022-09-09T01:31:38;2.65;;;1.10;;
3465;SDS011;1747;48.884;9.160;2022-09-09T01:34:09;3.55;;;1.05;;
3465;SDS011;1747;48.884;9.160;2022-09-09T01:36:38;3.17;;;1.13;;
3465;SDS011;1747;48.884;9.160;2022-09-09T01:39:09;2.72;;;0.80;;
3465;SDS011;1747;48.884;9.160;2022-09-09T01:41:36;2.85;;;1.00;;
3465;SDS011;1747;48.884;9.160;2022-09-09T01:44:04;3.53;;;1.02;;
3465;SDS011;1747;48.884;9.160;2022-09-09T01:46:32;2.03;;;1.00;;
3465;SDS011;1747;48.884;9.160;2022-09-09T01:48:59;4.50;;;1.00;;
3465;SDS011;1747;48.884;9.160;2022-09-09T01:51:27;3.13;;;1.15;;
3465;SDS011;1747;48.884;9.160;2022-09-09T01:53:55;2.17;;;1.10;;
3465;SDS011;1747;48.884;9.160;2022-09-09T01:56:25;1.25;;;0.75;;
3465;SDS011;1747;48.884;9.160;2022-09-09T01:59:05;7.15;;;1.77;;
3465;SDS011;1747;48.884;9.160;2022-09-09T02:01:45;5.10;;;1.10;;
3465;SDS011;1747;48.884;9.160;2022-09-09T02:04:25;1.92;;;0.90;;
3465;SDS011;1747;48.884;9.160;2022-09-09T02:07:02;1.10;;;0.90;;
3465;SDS011;1747;48.884;9.160;2022-09-09T02:09:37;5.57;;;1.38;;
3465;SDS011;1747;48.884;9.160;2022-09-09T02:12:10;1.92;;;1.00;;
3465;SDS011;1747;48.884;9.160;2022-09-09T02:14:42;3.13;;;1.10;;
3465;SDS011;1747;48.884;9.160;2022-09-09T02:17:16;7.97;;;1.10;;
3465;SDS011;1747;48.884;9.160;2022-09-09T02:19:49;1.33;;;0.70;;
3465;SDS011;1747;48.884;9.160;2022-09-09T02:22:20;3.67;;;1.40;;
3465;SDS011;1747;48.884;9.160;2022-09-09T02:24:50;1.75;;;0.80;;
3465;SDS011;1747;48.884;9.160;2022-09-09T02:27:20;2.30;;;1.05;;
3465;SDS011;1747;48.884;9.160;2022-09-09T02:29:49;7.68;;;1.27;;
3465;SDS011;1747;48.884;9.160;2022-09-09T02:32:19;2.83;;;0.85;;
3465;SDS011;1747;48.884;9.160;2022-09-09T02:34:49;1.15;;;0.70;;
3465;SDS011;1747;48.884;9.160;2022-09-09T02:37:20;0.80;;;0.68;;
3465;SDS011;1747;48.884;9.160;2022-09-09T02:39:50;2.08;;;0.80;;
3465;SDS011;1747;48.884;9.160;2022-09-09T02:42:17;4.28;;;0.90;;
3465;SDS011;1747;48.884;9.160;2022-09-09T02:44:44;2.65;;;0.80;;
3465;SDS011;1747;48.884;9.160;2022-09-09T02:47:19;4.03;;;0.70;;
3465;SDS011;1747;48.884;9.160;2022-09-09T02:49:57;3.30;;;0.95;;
3465;SDS011;1747;48.884;9.160;2022-09-09T02:52:32;1.88;;;0.93;;
3465;SDS011;1747;48.884;9.160;2022-09-09T02:55:10;1.40;;;0.63;;
3465;SDS011;1747;48.884;9.160;2022-09-09T02:57:43;2.35;;;0.90;;
3465;SDS011;1747;48.884;9.160;2022-09-09T03:00:12;1.05;;;0.80;;
3465;SDS011;1747;48.884;9.160;2022-09-09T03:02:41;3.00;;;0.80;;
3465;SDS011;1747;48.884;9.160;2022-09-09T03:05:10;2.47;;;1.10;;
3465;SDS011;1747;48.884;9.160;2022-09-09T03:07:38;3.95;;;1.20;;
3465;SDS011;1747;48.884;9.160;2022-09-09T03:10:05;3.17;;;0.77;;
3465;SDS011;1747;48.884;9.160;2022-09-09T03:12:33;1.25;;;0.80;;
3465;SDS011;1747;48.884;9.160;2022-09-09T03:14:59;2.03;;;0.82;;
3465;SDS011;1747;48.884;9.160;2022-09-09T03:17:26;2.03;;;0.80;;
3465;SDS011;1747;48.884;9.160;2022-09-09T03:19:54;4.20;;;0.88;;
3465;SDS011;1747;48.884;9.160;2022-09-09T03:22:23;3.35;;;0.90;;
3465;SDS011;1747;48.884;9.160;2022-09-09T03:24:50;2.95;;;0.82;;
3465;SDS011;1747;48.884;9.160;2022-09-09T03:27:17;2.28;;;0.93;;
3465;SDS011;1747;48.884;9.160;2022-09-09T03:29:44;1.90;;;0.70;;
3465;SDS011;1747;48.884;9.160;2022-09-09T03:32:11;3.42;;;1.00;;
3465;SDS011;1747;48.884;9.160;2022-09-09T03:34:38;6.57;;;1.13;;
3465;SDS011;1747;48.884;9.160;2022-09-09T03:37:06;1.60;;;0.90;;
3465;SDS011;1747;48.884;9.160;2022-09-09T03:39:33;1.30;;;0.80;;
3465;SDS011;1747;48.884;9.160;2022-09-09T03:42:00;2.17;;;1.20;;
3465;SDS011;1747;48.884;9.160;2022-09-09T03:44:29;3.28;;;1.10;;
3465;SDS011;1747;48.884;9.160;2022-09-09T03:46:55;3.50;;;0.98;;
3465;SDS011;1747;48.884;9.160;2022-09-09T03:49:25;3.83;;;1.20;;
3465;SDS011;1747;48.884;9.160;2022-09-09T03:51:53;2.60;;;0.80;;
3465;SDS011;1747;48.884;9.160;2022-09-09T03:54:22;4.15;;;1.00;;
3465;SDS011;1747;48.884;9.160;2022-09-09T03:56:49;4.15;;;1.20;;
3465;SDS011;1747;48.884;9.160;2022-09-09T03:59:16;2.33;;;1.08;;
3465;SDS011;1747;48.884;9.160;2022-09-09T04:01:43;2.88;;;1.17;;
3465;SDS011;1747;48.884;9.160;2022-09-09T04:04:10;1.00;;;0.85;;
3465;SDS011;1747;48.884;9.160;2022-09-09T04:06:37;3.05;;;1.25;;
3465;SDS011;1747;48.884;9.160;2022-09-09T04:09:04;3.17;;;1.20;;
3465;SDS011;1747;48.884;9.160;2022-09-09T04:11:32;1.90;;;1.27;;
3465;SDS011;1747;48.884;9.160;2022-09-09T04:13:59;3.30;;;1.05;;
3465;SDS011;1747;48.884;9.160;2022-09-09T04:16:25;1.80;;;1.08;;
3465;SDS011;1747;48.884;9.160;2022-09-09T04:18:52;3.47;;;1.50;;
3465;SDS011;1747;48.884;9.160;2022-09-09T04:21:21;2.70;;;0.98;;
3465;SDS011;1747;48.884;9.160;2022-09-09T04:23:48;1.30;;;0.90;;
3465;SDS011;1747;48.884;9.160;2022-09-09T04:26:15;2.80;;;1.10;;
3465;SDS011;1747;48.884;9.160;2022-09-09T04:28:43;3.13;;;1.10;;
3465;SDS011;1747;48.884;9.160;2022-09-09T04:31:11;2.70;;;1.08;;
3465;SDS011;1747;48.884;9.160;2022-09-09T04:33:42;4.43;;;1.20;;
3465;SDS011;1747;48.884;9.160;2022-09-09T04:36:09;4.55;;;1.40;;
3465;SDS011;1747;48.884;9.160;2022-09-09T04:38:36;4.70;;;1.38;;
3465;SDS011;1747;48.884;9.160;2022-09-09T04:41:02;3.40;;;1.20;;
3465;SDS011;1747;48.884;9.160;2022-09-09T04:43:30;2.65;;;1.00;;
3465;SDS011;1747;48.884;9.160;2022-09-09T04:45:58;4.15;;;1.33;;
3465;SDS011;1747;48.884;9.160;2022-09-09T04:48:25;1.50;;;1.30;;
3465;SDS011;1747;48.884;9.160;2022-09-09T04:50:55;4.95;;;1.33;;
3465;SDS011;1747;48.884;9.160;2022-09-09T04:53:23;2.85;;;1.30;;
3465;SDS011;1747;48.884;9.160;2022-09-09T04:55:50;4.38;;;1.70;;
3465;SDS011;1747;48.884;9.160;2022-09-09T04:58:17;2.15;;;1.27;;
3465;SDS011;1747;48.884;9.160;2022-09-09T05:00:46;2.50;;;1.38;;
3465;SDS011;1747;48.884;9.160;2022-09-09T05:03:14;6.68;;;1.38;;
3465;SDS011;1747;48.884;9.160;2022-09-09T05:05:41;4.40;;;1.38;;
3465;SDS011;1747;48.884;9.160;2022-09-09T05:08:09;4.45;;;1.60;;
3465;SDS011;1747;48.884;9.160;2022-09-09T05:10:37;5.07;;;1.58;;
3465;SDS011;1747;48.884;9.160;2022-09-09T05:13:07;3.42;;;1.27;;
3465;SDS011;1747;48.884;9.160;2022-09-09T05:15:33;2.78;;;1.52;;
3465;SDS011;1747;48.884;9.160;2022-09-09T05:18:01;2.35;;;1.30;;
3465;SDS011;1747;48.884;9.160;2022-09-09T05:20:29;2.58;;;1.30;;
3465;SDS011;1747;48.884;9.160;2022-09-09T05:22:56;2.25;;;1.35;;
3465;SDS011;1747;48.884;9.160;2022-09-09T05:25:23;2.90;;;1.60;;
3465;SDS011;1747;48.884;9.160;2022-09-09T05:27:51;6.93;;;1.75;;
3465;SDS011;1747;48.884;9.160;2022-09-09T05:30:19;4.10;;;1.42;;
3465;SDS011;1747;48.884;9.160;2022-09-09T05:32:47;4.72;;;1.30;;
3465;SDS011;1747;48.884;9.160;2022-09-09T05:35:14;5.20;;;1.52;;
3465;SDS011;1747;48.884;9.160;2022-09-09T05:37:42;5.32;;;1.38;;
3465;SDS011;1747;48.884;9.160;2022-09-09T05:40:11;4.78;;;1.00;;
3465;SDS011;1747;48.884;9.160;2022-09-09T05:42:38;3.08;;;1.30;;
3465;SDS011;1747;48.884;9.160;2022-09-09T05:45:05;3.05;;;1.40;;
3465;SDS011;1747;48.884;9.160;2022-09-09T05:47:33;5.40;;;1.48;;
3465;SDS011;1747;48.884;9.160;2022-09-09T05:50:00;3.92;;;1.10;;
3465;SDS011;1747;48.884;9.160;2022-09-09T05:52:27;3.58;;;1.35;;
3465;SDS011;1747;48.884;9.160;2022-09-09T05:54:55;4.30;;;1.50;;
3465;SDS011;1747;48.884;9.160;2022-09-09T05:57:22;2.67;;;0.93;;
3465;SDS011;1747;48.884;9.160;2022-09-09T05:59:49;3.80;;;0.98;;
3465;SDS011;1747;48.884;9.160;2022-09-09T06:02:15;3.50;;;0.85;;
3465;SDS011;1747;48.884;9.160;2022-09-09T06:04:42;2.28;;;0.80;;
3465;SDS011;1747;48.884;9.160;2022-09-09T06:07:09;0.90;;;0.70;;
3465;SDS011;1747;48.884;9.160;2022-09-09T06:09:36;4.03;;;1.17;;
3465;SDS011;1747;48.884;9.160;2022-09-09T06:12:04;2.25;;;0.68;;
3465;SDS011;1747;48.884;9.160;2022-09-09T06:14:32;1.95;;;0.80;;
3465;SDS011;1747;48.884;9.160;2022-09-09T06:16:58;2.70;;;0.88;;
3465;SDS011;1747;48.884;9.160;2022-09-09T06:19:27;2.15;;;0.82;;
3465;SDS011;1747;48.884;9.160;2022-09-09T06:21:54;2.70;;;1.00;;
3465;SDS011;1747;48.884;9.160;2022-09-09T06:24:20;4.65;;;0.90;;
3465;SDS011;1747;48.884;9.160;2022-09-09T06:26:47;3.97;;;1.00;;
3465;SDS011;1747;48.884;9.160;2022-09-09T06:29:15;4.18;;;1.13;;
3465;SDS011;1747;48.884;9.160;2022-09-09T06:31:42;6.70;;;1.05;;
3465;SDS011;1747;48.884;9.160;2022-09-09T06:34:09;2.63;;;0.75;;
3465;SDS011;1747;48.884;9.160;2022-09-09T06:36:36;3.42;;;0.98;;
3465;SDS011;1747;48.884;9.160;2022-09-09T06:39:04;2.08;;;0.68;;
3465;SDS011;1747;48.884;9.160;2022-09-09T06:41:33;3.97;;;1.00;;
3465;SDS011;1747;48.884;9.160;2022-09-09T06:44:00;0.95;;;0.80;;
3465;SDS011;1747;48.884;9.160;2022-09-09T06:46:29;1.90;;;1.10;;
3465;SDS011;1747;48.884;9.160;2022-09-09T06:48:58;3.22;;;0.85;;
3465;SDS011;1747;48.884;9.160;2022-09-09T06:51:25;4.95;;;0.80;;
3465;SDS011;1747;48.884;9.160;2022-09-09T06:53:54;6.30;;;1.00;;
3465;SDS011;1747;48.884;9.160;2022-09-09T06:56:23;4.03;;;1.50;;
3465;SDS011;1747;48.884;9.160;2022-09-09T06:58:53;1.83;;;0.95;;
3465;SDS011;1747;48.884;9.160;2022-09-09T07:01:21;4.05;;;1.40;;
3465;SDS011;1747;48.884;9.160;2022-09-09T07:03:51;2.58;;;0.93;;
3465;SDS011;1747;48.884;9.160;2022-09-09T07:06:20;2.83;;;0.90;;
3465;SDS011;1747;48.884;9.160;2022-09-09T07:08:49;3.50;;;0.70;;
3465;SDS011;1747;48.884;9.160;2022-09-09T07:11:16;2.20;;;0.98;;
3465;SDS011;1747;48.884;9.160;2022-09-09T07:13:44;3.15;;;0.70;;
3465;SDS011;1747;48.884;9.160;2022-09-09T07:16:11;3.05;;;1.02;;
3465;SDS011;1747;48.884;9.160;2022-09-09T07:18:42;2.15;;;0.82;;
3465;SDS011;1747;48.884;9.160;2022-09-09T07:21:11;3.42;;;0.90;;
3465;SDS011;1747;48.884;9.160;2022-09-09T07:23:39;4.05;;;1.40;;
3465;SDS011;1747;48.884;9.160;2022-09-09T07:26:07;1.50;;;0.90;;
3465;SDS011;1747;48.884;9.160;2022-09-09T07:28:36;4.68;;;0.80;;
3465;SDS011;1747;48.884;9.160;2022-09-09T07:31:03;5.68;;;1.10;;
3465;SDS011;1747;48.884;9.160;2022-09-09T07:33:33;3.65;;;1.20;;
3465;SDS011;1747;48.884;9.160;2022-09-09T07:36:02;2.03;;;0.95;;
3465;SDS011;1747;48.884;9.160;2022-09-09T07:38:32;4.18;;;1.40;;
3465;SDS011;1747;48.884;9.160;2022-09-09T07:41:03;3.42;;;1.13;;
3465;SDS011;1747;48.884;9.160;2022-09-09T07:43:33;1.38;;;1.08;;
3465;SDS011;1747;48.884;9.160;2022-09-09T07:46:00;5.00;;;1.13;;
3465;SDS011;1747;48.884;9.160;2022-09-09T07:48:28;3.95;;;0.98;;
3465;SDS011;1747;48.884;9.160;2022-09-09T07:51:03;6.10;;;0.82;;
3465;SDS011;1747;48.884;9.160;2022-09-09T07:53:34;3.58;;;1.00;;
3465;SDS011;1747;48.884;9.160;2022-09-09T07:56:04;3.00;;;0.90;;
3465;SDS011;1747;48.884;9.160;2022-09-09T07:58:34;5.15;;;1.20;;
3465;SDS011;1747;48.884;9.160;2022-09-09T08:01:08;2.95;;;1.05;;
3465;SDS011;1747;48.884;9.160;2022-09-09T08:03:37;1.52;;;0.80;;
3465;SDS011;1747;48.884;9.160;2022-09-09T08:06:05;3.47;;;1.00;;
3465;SDS011;1747;48.884;9.160;2022-09-09T08:08:39;3.28;;;1.10;;
3465;SDS011;1747;48.884;9.160;2022-09-09T08:11:09;1.38;;;0.80;;
3465;SDS011;1747;48.884;9.160;2022-09-09T08:13:37;2.47;;;1.10;;
3465;SDS011;1747;48.884;9.160;2022-09-09T08:16:05;1.50;;;0.80;;
3465;SDS011;1747;48.884;9.160;2022-09-09T08:18:33;1.15;;;0.63;;
3465;SDS011;1747;48.884;9.160;2022-09-09T08:21:08;1.70;;;0.77;;
3465;SDS011;1747;48.884;9.160;2022-09-09T08:23:39;2.10;;;0.75;;
3465;SDS011;1747;48.884;9.160;2022-09-09T08:26:09;1.77;;;0.70;;
3465;SDS011;1747;48.884;9.160;2022-09-09T08:28:39;1.67;;;0.60;;
3465;SDS011;1747;48.884;9.160;2022-09-09T08:31:08;4.18;;;1.20;;
3465;SDS011;1747;48.884;9.160;2022-09-09T08:33:37;3.50;;;0.95;;
3465;SDS011;1747;48.884;9.160;2022-09-09T08:36:04;1.88;;;0.80;;
3465;SDS011;1747;48.884;9.160;2022-09-09T08:38:32;1.83;;;0.68;;
3465;SDS011;1747;48.884;9.160;2022-09-09T08:41:04;3.78;;;0.75;;
3465;SDS011;1747;48.884;9.160;2022-09-09T08:43:37;3.28;;;0.90;;
3465;SDS011;1747;48.884;9.160;2022-09-09T08:46:07;2.63;;;0.90;;
3465;SDS011;1747;48.884;9.160;2022-09-09T08:48:47;2.45;;;0.73;;
3465;SDS011;1747;48.884;9.160;2022-09-09T08:51:23;2.83;;;0.70;;
3465;SDS011;1747;48.884;9.160;2022-09-09T08:53:53;3.97;;;1.20;;
3465;SDS011;1747;48.884;9.160;2022-09-09T08:56:26;2.15;;;0.80;;
3465;SDS011;1747;48.884;9.160;2022-09-09T08:58:56;5.43;;;1.00;;
3465;SDS011;1747;48.884;9.160;2022-09-09T09:01:41;2.42;;;0.82;;
3465;SDS011;1747;48.884;9.160;2022-09-09T09:04:21;1.80;;;0.57;;
3465;SDS011;1747;48.884;9.160;2022-09-09T09:07:07;3.63;;;0.90;;
3465;SDS011;1747;48.884;9.160;2022-09-09T09:09:47;1.48;;;0.70;;
3465;SDS011;1747;48.884;9.160;2022-09-09T09:12:25;4.32;;;0.90;;
3465;SDS011;1747;48.884;9.160;2022-09-09T09:14:55;1.52;;;0.55;;
3465;SDS011;1747;48.884;9.160;2022-09-09T09:17:24;2.10;;;0.70;;
3465;SDS011;1747;48.884;9.160;2022-09-09T09:19:56;2.58;;;0.70;;
3465;SDS011;1747;48.884;9.160;2022-09-09T09:22:26;1.50;;;0.60;;
3465;SDS011;1747;48.884;9.160;2022-09-09T09:25:02;2.50;;;0.80;;
3465;SDS011;1747;48.884;9.160;2022-09-09T09:27:40;2.03;;;0.80;;
3465;SDS011;1747;48.884;9.160;2022-09-09T09:30:13;3.05;;;1.10;;
3465;SDS011;1747;48.884;9.160;2022-09-09T09:32:44;0.70;;;0.47;;
3465;SDS011;1747;48.884;9.160;2022-09-09T09:35:17;1.92;;;0.80;;
3465;SDS011;1747;48.884;9.160;2022-09-09T09:37:44;3.13;;;0.90;;
3465;SDS011;1747;48.884;9.160;2022-09-09T09:40:12;2.38;;;0.80;;
3465;SDS011;1747;48.884;9.160;2022-09-09T09:42:48;3.63;;;1.23;;
3465;SDS011;1747;48.884;9.160;2022-09-09T09:45:26;3.95;;;0.70;;
3465;SDS011;1747;48.884;9.160;2022-09-09T09:47:59;3.78;;;0.80;;
3465;SDS011;1747;48.884;9.160;2022-09-09T09:50:28;3.97;;;0.90;;
3465;SDS011;1747;48.884;9.160;2022-09-09T09:52:57;3.78;;;1.10;;
3465;SDS011;1747;48.884;9.160;2022-09-09T09:55:26;2.28;;;1.35;;
3465;SDS011;1747;48.884;9.160;2022-09-09T09:58:01;5.78;;;1.17;;
3465;SDS011;1747;48.884;9.160;2022-09-09T10:00:30;3.03;;;0.80;;
3465;SDS011;1747;48.884;9.160;2022-09-09T10:02:59;2.88;;;0.80;;
3465;SDS011;1747;48.884;9.160;2022-09-09T10:05:27;3.50;;;0.98;;
3465;SDS011;1747;48.884;9.160;2022-09-09T10:08:08;3.38;;;1.00;;
3465;SDS011;1747;48.884;9.160;2022-09-09T10:10:45;3.13;;;0.60;;
3465;SDS011;1747;48.884;9.160;2022-09-09T10:13:45;1.52;;;0.70;;
3465;SDS011;1747;48.884;9.160;2022-09-09T10:16:25;1.40;;;0.52;;
3465;SDS011;1747;48.884;9.160;2022-09-09T10:19:04;2.00;;;0.65;;
3465;SDS011;1747;48.884;9.160;2022-09-09T10:21:48;1.75;;;0.70;;
3465;SDS011;1747;48.884;9.160;2022-09-09T10:24:33;1.15;;;0.80;;
3465;SDS011;1747;48.884;9.160;2022-09-09T10:27:15;1.10;;;0.60;;
3465;SDS011;1747;48.884;9.160;2022-09-09T10:29:59;7.28;;;0.70;;
3465;SDS011;1747;48.884;9.160;2022-09-09T10:32:37;3.05;;;0.95;;
3465;SDS011;1747;48.884;9.160;2022-09-09T10:35:12;0.85;;;0.70;;
3465;SDS011;1747;48.884;9.160;2022-09-09T10:37:52;3.63;;;0.90;;
3465;SDS011;1747;48.884;9.160;2022-09-09T10:40:32;0.95;;;0.60;;
3465;SDS011;1747;48.884;9.160;2022-09-09T10:43:04;4.70;;;0.70;;
3465;SDS011;1747;48.884;9.160;2022-09-09T10:45:41;1.50;;;0.88;;
3465;SDS011;1747;48.884;9.160;2022-09-09T10:48:25;1.73;;;0.63;;
3465;SDS011;1747;48.884;9.160;2022-09-09T10:51:01;3.25;;;0.75;;
3465;SDS011;1747;48.884;9.160;2022-09-09T10:53:37;4.00;;;1.00;;
3465;SDS011;1747;48.884;9.160;2022-09-09T10:56:15;3.60;;;0.98;;
3465;SDS011;1747;48.884;9.160;2022-09-09T10:58:46;4.43;;;0.80;;
3465;SDS011;1747;48.884;9.160;2022-09-09T11:01:22;4.40;;;0.82;;
3465;SDS011;1747;48.884;9.160;2022-09-09T11:03:53;2.67;;;0.68;;
3465;SDS011;1747;48.884;9.160;2022-09-09T11:06:26;4.88;;;0.95;;
3465;SDS011;1747;48.884;9.160;2022-09-09T11:09:01;2.90;;;0.70;;
3465;SDS011;1747;48.884;9.160;2022-09-09T11:11:34;6.72;;;1.10;;
3465;SDS011;1747;48.884;9.160;2022-09-09T11:14:09;4.40;;;0.77;;
3465;SDS011;1747;48.884;9.160;2022-09-09T11:16:45;9.52;;;1.08;;
3465;SDS011;1747;48.884;9.160;2022-09-09T11:19:19;2.72;;;0.90;;
3465;SDS011;1747;48.884;9.160;2022-09-09T11:21:53;8.65;;;1.52;;
3465;SDS011;1747;48.884;9.160;2022-09-09T11:24:25;4.90;;;1.48;;
3465;SDS011;1747;48.884;9.160;2022-09-09T11:26:57;1.98;;;0.70;;
3465;SDS011;1747;48.884;9.160;2022-09-09T11:35:26;2.33;;;0.55;;
3465;SDS011;1747;48.884;9.160;2022-09-09T11:38:08;3.22;;;0.60;;
3465;SDS011;1747;48.884;9.160;2022-09-09T11:40:55;1.45;;;0.63;;
3465;SDS011;1747;48.884;9.160;2022-09-09T11:43:27;0.50;;;0.50;;
3465;SDS011;1747;48.884;9.160;2022-09-09T11:45:59;1.15;;;0.45;;
3465;SDS011;1747;48.884;9.160;2022-09-09T11:48:31;1.85;;;0.45;;
3465;SDS011;1747;48.884;9.160;2022-09-09T11:51:00;2.60;;;0.40;;
3465;SDS011;1747;48.884;9.160;2022-09-09T11:53:30;1.23;;;0.75;;
3465;SDS011;1747;48.884;9.160;2022-09-09T11:56:09;1.60;;;0.50;;
3465;SDS011;1747;48.884;9.160;2022-09-09T11:58:39;0.52;;;0.38;;
3465;SDS011;1747;48.884;9.160;2022-09-09T12:01:12;2.15;;;0.50;;
3465;SDS011;1747;48.884;9.160;2022-09-09T12:03:55;2.72;;;0.30;;
3465;SDS011;1747;48.884;9.160;2022-09-09T12:06:41;2.97;;;0.50;;
3465;SDS011;1747;48.884;9.160;2022-09-09T12:09:14;2.67;;;0.50;;
3465;SDS011;1747;48.884;9.160;2022-09-09T12:11:46;2.20;;;0.55;;
3465;SDS011;1747;48.884;9.160;2022-09-09T12:14:19;1.38;;;0.30;;
3465;SDS011;1747;48.884;9.160;2022-09-09T12:16:47;2.45;;;0.30;;
3465;SDS011;1747;48.884;9.160;2022-09-09T12:19:18;1.38;;;0.40;;
3465;SDS011;1747;48.884;9.160;2022-09-09T12:21:48;1.15;;;0.50;;
3465;SDS011;1747;48.884;9.160;2022-09-09T12:24:22;0.43;;;0.30;;
3465;SDS011;1747;48.884;9.160;2022-09-09T12:26:58;2.03;;;0.80;;
3465;SDS011;1747;48.884;9.160;2022-09-09T12:29:33;1.90;;;0.45;;
3465;SDS011;1747;48.884;9.160;2022-09-09T12:32:09;0.93;;;0.50;;
3465;SDS011;1747;48.884;9.160;2022-09-09T12:34:40;4.32;;;0.68;;
3465;SDS011;1747;48.884;9.160;2022-09-09T12:37:12;1.65;;;0.65;;
3465;SDS011;1747;48.884;9.160;2022-09-09T12:39:44;0.95;;;0.43;;
3465;SDS011;1747;48.884;9.160;2022-09-09T12:42:17;0.88;;;0.43;;
3465;SDS011;1747;48.884;9.160;2022-09-09T12:44:52;1.90;;;0.75;;
3465;SDS011;1747;48.884;9.160;2022-09-09T12:47:20;0.90;;;0.45;;
3465;SDS011;1747;48.884;9.160;2022-09-09T12:49:53;1.23;;;0.50;;
3465;SDS011;1747;48.884;9.160;2022-09-09T12:52:23;1.60;;;0.70;;
3465;SDS011;1747;48.884;9.160;2022-09-09T12:54:55;0.73;;;0.30;;
3465;SDS011;1747;48.884;9.160;2022-09-09T12:57:23;2.47;;;0.50;;
3465;SDS011;1747;48.884;9.160;2022-09-09T12:59:52;1.40;;;0.47;;
3465;SDS011;1747;48.884;9.160;2022-09-09T13:02:30;1.25;;;0.50;;
3465;SDS011;1747;48.884;9.160;2022-09-09T13:05:08;0.70;;;0.40;;
3465;SDS011;1747;48.884;9.160;2022-09-09T13:07:41;0.82;;;0.30;;
3465;SDS011;1747;48.884;9.160;2022-09-09T13:10:10;2.22;;;0.50;;
3465;SDS011;1747;48.884;9.160;2022-09-09T13:12:37;1.40;;;0.65;;
3465;SDS011;1747;48.884;9.160;2022-09-09T13:15:05;0.50;;;0.30;;
3465;SDS011;1747;48.884;9.160;2022-09-09T13:17:40;1.35;;;0.45;;
3465;SDS011;1747;48.884;9.160;2022-09-09T13:20:15;0.95;;;0.60;;
3465;SDS011;1747;48.884;9.160;2022-09-09T13:22:42;1.65;;;0.70;;
3465;SDS011;1747;48.884;9.160;2022-09-09T13:25:17;1.98;;;0.60;;
3465;SDS011;1747;48.884;9.160;2022-09-09T13:27:51;2.25;;;0.70;;
3465;SDS011;1747;48.884;9.160;2022-09-09T13:30:21;1.35;;;0.40;;
3465;SDS011;1747;48.884;9.160;2022-09-09T13:32:59;2.60;;;0.52;;
3465;SDS011;1747;48.884;9.160;2022-09-09T13:35:32;2.60;;;0.60;;
3465;SDS011;1747;48.884;9.160;2022-09-09T13:38:06;2.35;;;0.45;;
3465;SDS011;1747;48.884;9.160;2022-09-09T13:40:34;1.13;;;0.70;;
3465;SDS011;1747;48.884;9.160;2022-09-09T13:43:01;2.58;;;0.50;;
3465;SDS011;1747;48.884;9.160;2022-09-09T13:45:30;1.52;;;0.50;;
3465;SDS011;1747;48.884;9.160;2022-09-09T13:48:08;1.60;;;0.52;;
3465;SDS011;1747;48.884;9.160;2022-09-09T13:50:38;1.52;;;0.40;;
3465;SDS011;1747;48.884;9.160;2022-09-09T13:53:07;1.85;;;0.50;;
3465;SDS011;1747;48.884;9.160;2022-09-09T13:55:34;1.00;;;0.50;;
3465;SDS011;1747;48.884;9.160;2022-09-09T13:58:04;1.77;;;0.63;;
3465;SDS011;1747;48.884;9.160;2022-09-09T14:00:31;1.33;;;0.50;;
3465;SDS011;1747;48.884;9.160;2022-09-09T14:03:00;1.38;;;0.52;;
3465;SDS011;1747;48.884;9.160;2022-09-09T14:05:27;2.63;;;0.60;;
3465;SDS011;1747;48.884;9.160;2022-09-09T14:07:58;1.05;;;0.70;;
3465;SDS011;1747;48.884;9.160;2022-09-09T14:10:25;1.23;;;0.60;;
3465;SDS011;1747;48.884;9.160;2022-09-09T14:12:52;1.35;;;0.40;;
3465;SDS011;1747;48.884;9.160;2022-09-09T14:15:19;2.58;;;0.60;;
3465;SDS011;1747;48.884;9.160;2022-09-09T14:17:47;4.20;;;0.70;;
3465;SDS011;1747;48.884;9.160;2022-09-09T14:20:14;1.88;;;0.43;;
3465;SDS011;1747;48.884;9.160;2022-09-09T14:22:42;1.10;;;0.45;;
3465;SDS011;1747;48.884;9.160;2022-09-09T14:25:11;3.65;;;0.80;;
3465;SDS011;1747;48.884;9.160;2022-09-09T14:27:39;2.42;;;0.50;;
3465;SDS011;1747;48.884;9.160;2022-09-09T14:30:07;0.93;;;0.50;;
3465;SDS011;1747;48.884;9.160;2022-09-09T14:32:35;0.50;;;0.50;;
3465;SDS011;1747;48.884;9.160;2022-09-09T14:35:03;1.52;;;0.50;;
3465;SDS011;1747;48.884;9.160;2022-09-09T14:37:31;1.00;;;0.50;;
3465;SDS011;1747;48.884;9.160;2022-09-09T14:39:58;0.85;;;0.40;;
3465;SDS011;1747;48.884;9.160;2022-09-09T14:42:26;3.22;;;0.63;;
3465;SDS011;1747;48.884;9.160;2022-09-09T14:44:54;3.50;;;0.93;;
3465;SDS011;1747;48.884;9.160;2022-09-09T14:47:21;1.55;;;0.50;;
3465;SDS011;1747;48.884;9.160;2022-09-09T14:49:49;1.13;;;0.47;;
3465;SDS011;1747;48.884;9.160;2022-09-09T14:52:16;2.80;;;0.60;;
3465;SDS011;1747;48.884;9.160;2022-09-09T14:54:43;2.13;;;0.55;;
3465;SDS011;1747;48.884;9.160;2022-09-09T14:57:11;1.65;;;0.60;;
3465;SDS011;1747;48.884;9.160;2022-09-09T14:59:40;1.50;;;0.40;;
3465;SDS011;1747;48.884;9.160;2022-09-09T15:02:08;2.35;;;0.40;;
3465;SDS011;1747;48.884;9.160;2022-09-09T15:04:35;0.50;;;0.47;;
3465;SDS011;1747;48.884;9.160;2022-09-09T15:07:02;2.20;;;0.50;;
3465;SDS011;1747;48.884;9.160;2022-09-09T15:09:29;0.75;;;0.43;;
3465;SDS011;1747;48.884;9.160;2022-09-09T15:11:56;1.10;;;0.60;;
3465;SDS011;1747;48.884;9.160;2022-09-09T15:14:28;0.85;;;0.50;;
3465;SDS011;1747;48.884;9.160;2022-09-09T15:16:57;1.95;;;0.40;;
3465;SDS011;1747;48.884;9.160;2022-09-09T15:19:24;1.48;;;0.60;;
3465;SDS011;1747;48.884;9.160;2022-09-09T15:21:50;3.20;;;0.60;;
3465;SDS011;1747;48.884;9.160;2022-09-09T15:24:17;1.40;;;0.57;;
3465;SDS011;1747;48.884;9.160;2022-09-09T15:26:44;1.42;;;0.50;;
3465;SDS011;1747;48.884;9.160;2022-09-09T15:29:11;1.83;;;0.40;;
3465;SDS011;1747;48.884;9.160;2022-09-09T15:31:38;0.98;;;0.30;;
3465;SDS011;1747;48.884;9.160;2022-09-09T15:34:07;1.30;;;0.40;;
3465;SDS011;1747;48.884;9.160;2022-09-09T15:36:34;2.28;;;0.40;;
3465;SDS011;1747;48.884;9.160;2022-09-09T15:39:03;1.00;;;0.30;;
3465;SDS011;1747;48.884;9.160;2022-09-09T15:41:31;0.35;;;0.30;;
3465;SDS011;1747;48.884;9.160;2022-09-09T15:43:58;2.08;;;0.50;;